ASA222 KPAE-KPAE
Flight info
| Callsign | ASA222 |
|---|---|
| Flight time | 0h 14m |
| Altitude | 6000 |
| Route | RNAV34 |
| Aircraft | B789/H-SDE1E2E3FGHIJ2J3J4J5M1RWXY/LB1D1 |
Departure
| Time | 2026-04-25 06:43 |
|---|---|
| Airport | Seattle Paine Field International Airport (KPAE) |
Arrival
| Time | 2026-04-25 06:57 |
|---|---|
| Airport | Seattle Paine Field International Airport (KPAE) |
| Time | Latitude | Longitude | Altitude | Speed | Heading |
|---|---|---|---|---|---|
| 2026-04-25 06:42 | 47.90023 | -122.28540 | 572 ft | 0 kts | 359° |
| 2026-04-25 06:42 | 47.90026 | -122.28540 | 572 ft | 4 kts | 359° |
| 2026-04-25 06:43 | 47.90206 | -122.28545 | 576 ft | 60 kts | 359° |
| 2026-04-25 06:43 | 47.90862 | -122.28559 | 578 ft | 129 kts | 359° |
| 2026-04-25 06:43 | 47.91906 | -122.28578 | 749 ft | 168 kts | 357° |
| 2026-04-25 06:43 | 47.93140 | -122.28650 | 1565 ft | 183 kts | 356° |
| 2026-04-25 06:44 | 47.94380 | -122.28725 | 2587 ft | 174 kts | 357° |
| 2026-04-25 06:44 | 47.95717 | -122.28811 | 3009 ft | 210 kts | 357° |
| 2026-04-25 06:44 | 47.97203 | -122.28910 | 3800 ft | 223 kts | 357° |
| 2026-04-25 06:44 | 47.98817 | -122.29019 | 3990 ft | 239 kts | 357° |
| 2026-04-25 06:45 | 48.00469 | -122.29137 | 3990 ft | 233 kts | 355° |
| 2026-04-25 06:45 | 48.02035 | -122.29736 | 3982 ft | 234 kts | 334° |
| 2026-04-25 06:45 | 48.03388 | -122.31084 | 3977 ft | 235 kts | 315° |
| 2026-04-25 06:45 | 48.04063 | -122.33290 | 4001 ft | 241 kts | 282° |
| 2026-04-25 06:46 | 48.04239 | -122.35794 | 4007 ft | 243 kts | 274° |
| 2026-04-25 06:46 | 48.04218 | -122.38329 | 4013 ft | 244 kts | 271° |
| 2026-04-25 06:46 | 48.04150 | -122.40856 | 4012 ft | 244 kts | 270° |
| 2026-04-25 06:46 | 48.04000 | -122.43369 | 3960 ft | 246 kts | 254° |
| 2026-04-25 06:47 | 48.03027 | -122.45461 | 4005 ft | 252 kts | 225° |
| 2026-04-25 06:47 | 48.01599 | -122.47011 | 4005 ft | 257 kts | 207° |
| 2026-04-25 06:47 | 47.99916 | -122.47853 | 3986 ft | 256 kts | 189° |
| 2026-04-25 06:47 | 47.98155 | -122.48065 | 3997 ft | 254 kts | 182° |
| 2026-04-25 06:48 | 47.96385 | -122.48109 | 4010 ft | 254 kts | 180° |
| 2026-04-25 06:48 | 47.94616 | -122.48123 | 4006 ft | 254 kts | 180° |
| 2026-04-25 06:48 | 47.92841 | -122.48131 | 4013 ft | 255 kts | 180° |
| 2026-04-25 06:48 | 47.91066 | -122.48139 | 4011 ft | 255 kts | 180° |
| 2026-04-25 06:49 | 47.89290 | -122.48145 | 3931 ft | 256 kts | 180° |
| 2026-04-25 06:49 | 47.87587 | -122.48151 | 3754 ft | 240 kts | 180° |
| 2026-04-25 06:49 | 47.85945 | -122.48157 | 3614 ft | 234 kts | 180° |
| 2026-04-25 06:49 | 47.84320 | -122.48163 | 3461 ft | 233 kts | 180° |
| 2026-04-25 06:50 | 47.82702 | -122.48167 | 3291 ft | 233 kts | 180° |
| 2026-04-25 06:50 | 47.81067 | -122.48167 | 3131 ft | 235 kts | 179° |
| 2026-04-25 06:50 | 47.79438 | -122.48174 | 3002 ft | 232 kts | 180° |
| 2026-04-25 06:50 | 47.77827 | -122.48179 | 3020 ft | 232 kts | 180° |
| 2026-04-25 06:51 | 47.76194 | -122.48182 | 2985 ft | 236 kts | 180° |
| 2026-04-25 06:51 | 47.74608 | -122.47977 | 2961 ft | 239 kts | 158° |
| 2026-04-25 06:51 | 47.73314 | -122.46636 | 2963 ft | 222 kts | 123° |
| 2026-04-25 06:51 | 47.72792 | -122.44506 | 3005 ft | 221 kts | 98° |
| 2026-04-25 06:52 | 47.72535 | -122.42256 | 3018 ft | 221 kts | 95° |
| 2026-04-25 06:52 | 47.72660 | -122.40025 | 2984 ft | 210 kts | 68° |
| 2026-04-25 06:52 | 47.73154 | -122.38086 | 2985 ft | 195 kts | 68° |
| 2026-04-25 06:52 | 47.73523 | -122.36162 | 2988 ft | 190 kts | 71° |
| 2026-04-25 06:53 | 47.73821 | -122.34258 | 3000 ft | 192 kts | 73° |
| 2026-04-25 06:53 | 47.74099 | -122.32312 | 2995 ft | 192 kts | 73° |
| 2026-04-25 06:53 | 47.74418 | -122.30391 | 3004 ft | 190 kts | 68° |
| 2026-04-25 06:53 | 47.75250 | -122.29007 | 2954 ft | 177 kts | 25° |
| 2026-04-25 06:54 | 47.76388 | -122.28371 | 2997 ft | 178 kts | 13° |
| 2026-04-25 06:54 | 47.77605 | -122.28221 | 2936 ft | 177 kts | 360° |
| 2026-04-25 06:54 | 47.78826 | -122.28261 | 2686 ft | 170 kts | 359° |
| 2026-04-25 06:54 | 47.79975 | -122.28309 | 2524 ft | 164 kts | 359° |
| 2026-04-25 06:55 | 47.81125 | -122.28337 | 2260 ft | 158 kts | 359° |
| 2026-04-25 06:55 | 47.82218 | -122.28359 | 2090 ft | 155 kts | 359° |
| 2026-04-25 06:55 | 47.83274 | -122.28398 | 1822 ft | 150 kts | 358° |
| 2026-04-25 06:55 | 47.84298 | -122.28420 | 1610 ft | 147 kts | 359° |
| 2026-04-25 06:56 | 47.85314 | -122.28441 | 1446 ft | 146 kts | 358° |
| 2026-04-25 06:56 | 47.86360 | -122.28462 | 1240 ft | 153 kts | 359° |
| 2026-04-25 06:56 | 47.87423 | -122.28469 | 1053 ft | 151 kts | 0° |
| 2026-04-25 06:56 | 47.88476 | -122.28500 | 856 ft | 152 kts | 359° |
| 2026-04-25 06:57 | 47.89531 | -122.28530 | 641 ft | 150 kts | 359° |
| 2026-04-25 06:57 | 47.90467 | -122.28545 | 578 ft | 112 kts | 1° |
| 2026-04-25 06:57 | 47.91044 | -122.28561 | 574 ft | 55 kts | 359° |
| 2026-04-25 06:57 | 47.91368 | -122.28564 | 574 ft | 38 kts | 357° |
| 2026-04-25 06:58 | 47.91581 | -122.28572 | 573 ft | 24 kts | 359° |
| 2026-04-25 06:58 | 47.91729 | -122.28576 | 574 ft | 23 kts | 359° |
| 2026-04-25 06:58 | 47.91889 | -122.28581 | 577 ft | 23 kts | 359° |
| 2026-04-25 06:58 | 47.92042 | -122.28584 | 574 ft | 21 kts | 359° |
| 2026-04-25 06:59 | 47.92125 | -122.28565 | 580 ft | 0 kts | 44° |